createdAt,value
2023-05-08T00:00:13.484Z,101058.37
2023-05-08T00:01:12.717Z,101059.22
2023-05-08T00:02:12.827Z,101058.21
2023-05-08T00:03:12.839Z,101056.09
2023-05-08T00:04:12.917Z,101058.26
2023-05-08T00:05:12.832Z,101056.66
2023-05-08T00:06:12.816Z,101059.2
2023-05-08T00:07:12.840Z,101053.8
2023-05-08T00:08:12.875Z,101054.09
2023-05-08T00:09:12.878Z,101059.91
2023-05-08T00:10:13.369Z,101054.36
2023-05-08T00:11:12.906Z,101053.84
2023-05-08T00:12:13.657Z,101057.47
2023-05-08T00:13:12.954Z,101055.81
2023-05-08T00:14:12.942Z,101056.22
2023-05-08T00:15:12.994Z,101054.56
2023-05-08T00:16:13.388Z,101055.77
2023-05-08T00:17:12.976Z,101059.72
2023-05-08T00:18:13.238Z,101059.58
2023-05-08T00:19:12.965Z,101061.39
2023-05-08T00:20:13.303Z,101059.94
2023-05-08T00:21:13.080Z,101059.23
2023-05-08T00:22:13.069Z,101056.92
2023-05-08T00:23:13.104Z,101060.03
2023-05-08T00:24:13.093Z,101062.54
2023-05-08T00:25:13.215Z,101061.16
2023-05-08T00:26:13.280Z,101058.31
2023-05-08T00:27:13.193Z,101062.1
2023-05-08T00:28:13.213Z,101060.44
2023-05-08T00:29:13.200Z,101058.78
2023-05-08T00:30:13.941Z,101062.73
2023-05-08T00:31:13.400Z,101056.5
2023-05-08T00:32:13.291Z,101060.62
2023-05-08T00:33:13.432Z,101057
2023-05-08T00:34:13.323Z,101057.14
2023-05-08T00:35:13.280Z,101061.72
2023-05-08T00:36:13.555Z,101059.36
2023-05-08T00:37:13.368Z,101058.82
2023-05-08T00:38:13.321Z,101058.44
2023-05-08T00:39:13.358Z,101059.67
2023-05-08T00:40:13.604Z,101061.66
2023-05-08T00:41:13.400Z,101058.91
2023-05-08T00:42:13.360Z,101061.27
2023-05-08T00:43:13.418Z,101059.08
2023-05-08T00:44:13.474Z,101070.19
2023-05-08T00:45:13.416Z,101070.23
2023-05-08T00:46:13.779Z,101066.45
2023-05-08T00:47:13.656Z,101063.09
2023-05-08T00:48:13.388Z,101071.47
2023-05-08T00:49:14.037Z,101074.7
2023-05-08T00:50:14.103Z,101064.36
2023-05-08T00:51:14.902Z,101070.98
2023-05-08T00:52:13.565Z,101069.75
2023-05-08T00:53:14.335Z,101073.84
2023-05-08T00:54:14.267Z,101074.88
2023-05-08T00:55:13.834Z,101082.2
2023-05-08T00:56:15.075Z,101080.09
2023-05-08T00:57:14.067Z,101078.3
2023-05-08T00:58:14.248Z,101076.23
2023-05-08T00:59:14.323Z,101076.44
2023-05-08T01:00:16.253Z,101078.86
2023-05-08T01:01:14.377Z,101078.55
2023-05-08T01:02:13.886Z,101078.79
2023-05-08T01:03:14.255Z,101081.25
2023-05-08T01:04:14.324Z,101083.85
2023-05-08T01:05:13.823Z,101085.7
2023-05-08T01:06:13.780Z,101085.41
2023-05-08T01:07:13.963Z,101085.94
2023-05-08T01:08:14.057Z,101092.29
2023-05-08T01:09:13.873Z,101084.95
2023-05-08T01:10:14.203Z,101086.75
2023-05-08T01:14:20.603Z,101091.55
2023-05-08T01:15:24.052Z,101089.91
2023-05-08T01:18:34.175Z,101092.89
2023-05-08T01:21:45.742Z,101088.37
2023-05-08T01:33:01.460Z,101102.65
2023-05-08T01:37:11.111Z,101106.69
2023-05-08T01:38:10.472Z,101107.36
2023-05-08T01:41:16.347Z,101105.42
2023-05-08T01:43:24.620Z,101097.26
2023-05-08T01:44:17.353Z,101100.88
2023-05-08T01:46:20.608Z,101106.87
2023-05-08T01:47:20.448Z,101102.03
2023-05-08T01:48:22.477Z,101101.41
2023-05-08T01:49:33.256Z,101098.02
2023-05-08T01:50:22.481Z,101098.63
2023-05-08T01:51:22.440Z,101100.02
2023-05-08T01:52:28.355Z,101104.22
2023-05-08T01:53:22.837Z,101104.5
2023-05-08T01:54:22.585Z,101104.52
2023-05-08T01:55:21.468Z,101108.02
2023-05-08T01:56:35.620Z,101104
2023-05-08T01:57:28.246Z,101105.6
2023-05-08T01:58:27.388Z,101111.48
2023-05-08T01:59:27.807Z,101108.76
2023-05-08T02:00:26.982Z,101108.77
2023-05-08T02:01:27.898Z,101113.81
2023-05-08T02:02:28.532Z,101111
2023-05-08T02:03:27.420Z,101107.55
2023-05-08T02:04:27.669Z,101108.83
2023-05-08T02:05:27.384Z,101108.02
2023-05-08T02:06:28.871Z,101108.75
2023-05-08T02:07:27.654Z,101110.39
2023-05-08T02:08:29.259Z,101109.75
2023-05-08T02:09:28.358Z,101107.93
2023-05-08T02:10:29.006Z,101110.67
2023-05-08T02:11:27.522Z,101109.57
2023-05-08T02:12:27.672Z,101112.08
2023-05-08T02:13:28.227Z,101109.16
2023-05-08T02:14:29.286Z,101111.69
2023-05-08T02:15:28.568Z,101114.12
2023-05-08T02:16:28.353Z,101110.7
2023-05-08T02:17:27.553Z,101111.75
2023-05-08T02:18:28.218Z,101112.52
2023-05-08T02:19:29.046Z,101113.7
2023-05-08T02:20:27.619Z,101113.39
2023-05-08T02:21:27.519Z,101114.86
2023-05-08T02:22:28.043Z,101115.26
2023-05-08T02:23:27.587Z,101113.6
2023-05-08T02:24:27.062Z,101114.54
2023-05-08T02:25:28.002Z,101113.13
2023-05-08T02:26:28.497Z,101111.41
2023-05-08T02:27:27.914Z,101113.37
2023-05-08T02:28:29.214Z,101112.8
2023-05-08T02:29:28.488Z,101113.34
2023-05-08T02:30:27.603Z,101114.42
2023-05-08T02:31:27.646Z,101113.41
2023-05-08T02:32:28.050Z,101112.64
2023-05-08T02:33:27.622Z,101110.28
2023-05-08T02:34:27.939Z,101111.58
2023-05-08T02:35:28.286Z,101114.04
2023-05-08T02:36:27.868Z,101119.06
2023-05-08T02:37:28.514Z,101119.45
2023-05-08T02:38:27.460Z,101117.59
2023-05-08T02:39:29.845Z,101117.86
2023-05-08T02:40:28.800Z,101114.05
2023-05-08T02:41:29.226Z,101114.67
2023-05-08T02:42:27.442Z,101111.24
2023-05-08T02:43:27.471Z,101113.7
2023-05-08T02:44:27.335Z,101114.19
2023-05-08T02:45:32.602Z,101113.29
2023-05-08T02:46:39.013Z,101117.8
2023-05-08T02:50:42.149Z,101108.19
2023-05-08T02:52:45.554Z,101115.69
2023-05-08T02:53:46.279Z,101114.23
2023-05-08T02:54:46.796Z,101110.75
2023-05-08T02:56:53.367Z,101109.44
2023-05-08T03:01:03.037Z,101110.53
2023-05-08T03:02:09.481Z,101112.69
2023-05-08T03:03:03.151Z,101110.48
2023-05-08T03:04:05.917Z,101112.83
2023-05-08T03:06:06.840Z,101110.34
2023-05-08T03:07:04.125Z,101112.59
2023-05-08T03:08:06.393Z,101108.6
2023-05-08T03:09:05.511Z,101111.74
2023-05-08T03:10:05.656Z,101107.83
2023-05-08T03:11:08.904Z,101109.78
2023-05-08T03:12:09.760Z,101108.02
2023-05-08T03:13:09.208Z,101105.52
2023-05-08T03:14:09.728Z,101108.82
2023-05-08T03:15:11.346Z,101106.5
2023-05-08T03:16:11.455Z,101108.23
2023-05-08T03:17:10.903Z,101110.61
2023-05-08T03:18:10.407Z,101108.85
2023-05-08T03:19:14.828Z,101109.97
2023-05-08T03:20:14.540Z,101112.41
2023-05-08T03:21:13.486Z,101111.92
2023-05-08T03:22:14.863Z,101109.95
2023-05-08T03:23:13.735Z,101113.88
2023-05-08T03:24:14.026Z,101111.98
2023-05-08T03:25:13.513Z,101113.75
2023-05-08T03:26:14.228Z,101111.2
2023-05-08T03:27:12.406Z,101109.34
2023-05-08T03:28:12.711Z,101110.83
2023-05-08T03:29:13.234Z,101112.44
2023-05-08T03:30:13.308Z,101109.14
2023-05-08T03:31:12.440Z,101108.86
2023-05-08T03:32:13.608Z,101110.64
2023-05-08T03:33:12.278Z,101109.14
2023-05-08T03:34:12.291Z,101106.75
2023-05-08T03:35:13.369Z,101104.8
2023-05-08T03:36:12.272Z,101107.86
2023-05-08T03:37:12.193Z,101107.69
2023-05-08T03:38:12.159Z,101106.8
2023-05-08T03:39:12.224Z,101106.66
2023-05-08T03:40:12.410Z,101108.02
2023-05-08T03:41:12.579Z,101105.17
2023-05-08T03:42:12.402Z,101107.33
2023-05-08T03:43:12.417Z,101106.51
2023-05-08T03:44:12.200Z,101106.62
2023-05-08T03:45:13.970Z,101104.42
2023-05-08T03:46:12.207Z,101105
2023-05-08T03:47:12.151Z,101107.08
2023-05-08T03:48:13.108Z,101106.17
2023-05-08T03:49:12.464Z,101107.45
2023-05-08T03:50:13.266Z,101106.33
2023-05-08T03:51:12.505Z,101110.98
2023-05-08T03:52:12.992Z,101104.01
2023-05-08T03:53:12.068Z,101109.46
2023-05-08T03:54:12.165Z,101110.83
2023-05-08T03:55:12.126Z,101113.25
2023-05-08T03:56:12.178Z,101109.44
2023-05-08T03:57:12.212Z,101113.57
2023-05-08T04:00:26.691Z,101112.12
2023-05-08T04:01:31.570Z,101113.33
2023-05-08T04:02:29.581Z,101116.44
2023-05-08T04:04:38.191Z,101119.53
2023-05-08T04:05:36.643Z,101115.06
2023-05-08T04:06:48.454Z,101116.12
2023-05-08T04:07:45.272Z,101118.15
2023-05-08T04:08:41.500Z,101115.18
2023-05-08T04:09:49.901Z,101116.46
2023-05-08T04:10:48.850Z,101114.13
2023-05-08T04:13:49.582Z,101120.63
2023-05-08T04:15:52.471Z,101119.31
2023-05-08T04:16:53.515Z,101122.75
2023-05-08T04:17:57.298Z,101118.03
2023-05-08T04:18:57.952Z,101121.45
2023-05-08T04:19:59.065Z,101123.19
2023-05-08T04:20:56.372Z,101127.09
2023-05-08T04:21:58.346Z,101123.8
2023-05-08T04:22:57.649Z,101125.51
2023-05-08T04:23:57.038Z,101125.95
2023-05-08T04:24:58.469Z,101123.72
2023-05-08T04:25:56.310Z,101122.5
2023-05-08T04:26:56.865Z,101124.17
2023-05-08T04:27:55.968Z,101124.98
2023-05-08T04:28:57.283Z,101125.99
2023-05-08T04:29:56.682Z,101127.2
2023-05-08T04:30:56.707Z,101125.42
2023-05-08T04:31:56.292Z,101126.99
2023-05-08T04:32:56.750Z,101125.86
2023-05-08T04:33:56.090Z,101125.34
2023-05-08T04:34:56.374Z,101122.45
2023-05-08T04:35:56.377Z,101124.1
2023-05-08T04:36:56.025Z,101124.78
2023-05-08T04:37:56.000Z,101126.3
2023-05-08T04:38:56.400Z,101125.98
2023-05-08T04:39:56.010Z,101129.87
2023-05-08T04:40:56.021Z,101130.91
2023-05-08T04:41:56.270Z,101129.17
2023-05-08T04:42:56.145Z,101131.95
2023-05-08T04:43:56.604Z,101134.73
2023-05-08T04:44:56.115Z,101132.55
2023-05-08T04:45:56.165Z,101135.34
2023-05-08T04:46:56.082Z,101132.94
2023-05-08T04:47:56.205Z,101141.38
2023-05-08T04:48:56.475Z,101136.77
2023-05-08T04:49:56.271Z,101139.99
2023-05-08T04:50:56.098Z,101137.73
2023-05-08T04:51:56.120Z,101137.95
2023-05-08T04:52:56.172Z,101134.12
2023-05-08T04:53:56.152Z,101136.08
2023-05-08T04:54:56.165Z,101135.44
2023-05-08T04:55:56.206Z,101138.29
2023-05-08T04:56:56.506Z,101140.55
2023-05-08T04:57:56.626Z,101142.75
2023-05-08T04:58:56.413Z,101141.39
2023-05-08T04:59:56.299Z,101142.81
2023-05-08T05:00:56.227Z,101143.95
2023-05-08T05:01:56.669Z,101145.55
2023-05-08T05:02:56.376Z,101146.34
2023-05-08T05:03:56.311Z,101148.3
2023-05-08T05:04:56.343Z,101147.48
2023-05-08T05:05:59.683Z,101146.24
2023-05-08T05:06:56.561Z,101139.91
2023-05-08T05:07:56.374Z,101143.12
2023-05-08T05:08:56.433Z,101142.95
2023-05-08T05:09:56.402Z,101143.94
2023-05-08T05:10:56.454Z,101143.83
2023-05-08T05:11:58.153Z,101141.12
2023-05-08T05:12:56.689Z,101142.3
2023-05-08T05:13:56.460Z,101145.7
2023-05-08T05:14:56.509Z,101145.48
2023-05-08T05:15:58.897Z,101147.61
2023-05-08T05:16:56.471Z,101139.06
2023-05-08T05:17:56.599Z,101143.62
2023-05-08T05:18:56.537Z,101142.96
2023-05-08T05:19:56.500Z,101144.56
2023-05-08T05:20:58.028Z,101142.09
2023-05-08T05:21:56.863Z,101142.67
2023-05-08T05:22:56.775Z,101141.98
2023-05-08T05:23:56.568Z,101139.56
2023-05-08T05:24:56.723Z,101142.85
2023-05-08T05:25:56.606Z,101141.27
2023-05-08T05:26:56.629Z,101142.09
2023-05-08T05:27:56.690Z,101144.12
2023-05-08T05:28:56.956Z,101146.62
2023-05-08T05:29:57.262Z,101143.34
2023-05-08T05:30:57.192Z,101146.51
2023-05-08T05:31:57.204Z,101147.27
2023-05-08T05:32:57.202Z,101143.88
2023-05-08T05:33:57.449Z,101146.91
2023-05-08T05:34:57.250Z,101144.27
2023-05-08T05:35:57.259Z,101149.85
2023-05-08T05:36:57.267Z,101148.51
2023-05-08T05:37:57.254Z,101148.41
2023-05-08T05:38:58.082Z,101149.7
2023-05-08T05:39:57.282Z,101148.81
2023-05-08T05:40:57.472Z,101146.77
2023-05-08T05:41:57.295Z,101147.43
2023-05-08T05:42:57.301Z,101148.9
2023-05-08T05:43:57.334Z,101147.88
2023-05-08T05:44:57.450Z,101146.86
2023-05-08T05:46:03.199Z,101151.64
2023-05-08T05:47:00.007Z,101149.22
2023-05-08T05:48:00.000Z,101147.8
2023-05-08T05:48:59.944Z,101151.59
2023-05-08T05:49:59.915Z,101153.83
2023-05-08T05:51:00.170Z,101150.66
2023-05-08T05:51:59.932Z,101151.67
2023-05-08T05:52:59.965Z,101152.01
2023-05-08T05:54:00.005Z,101151.3
2023-05-08T05:55:00.018Z,101156.69
2023-05-08T05:56:00.043Z,101153.17
2023-05-08T05:57:00.157Z,101155.15
2023-05-08T05:58:00.001Z,101155.01
2023-05-08T05:59:00.076Z,101156.11
2023-05-08T06:00:00.443Z,101154.34
2023-05-08T06:01:00.045Z,101156.23
2023-05-08T06:02:00.234Z,101157.66
2023-05-08T06:03:00.328Z,101153.23
2023-05-08T06:04:00.437Z,101158.77
2023-05-08T06:05:00.475Z,101152.97
2023-05-08T06:06:00.342Z,101152.19
2023-05-08T06:07:00.270Z,101153.9
2023-05-08T06:08:00.218Z,101152.32
2023-05-08T06:09:00.360Z,101155.62
2023-05-08T06:10:00.397Z,101157.97
2023-05-08T06:11:00.229Z,101158.64
2023-05-08T06:12:00.345Z,101158.79
2023-05-08T06:13:00.319Z,101156.03
2023-05-08T06:14:00.254Z,101156.22
2023-05-08T06:15:00.306Z,101159.45
2023-05-08T06:16:00.214Z,101158.98
2023-05-08T06:17:00.550Z,101151.43
2023-05-08T06:18:00.333Z,101154.2
2023-05-08T06:19:00.287Z,101155.77
2023-05-08T06:20:00.549Z,101157
2023-05-08T06:21:00.521Z,101154.76
2023-05-08T06:22:00.343Z,101152.98
2023-05-08T06:23:00.350Z,101158.65
2023-05-08T06:24:00.316Z,101157.77
2023-05-08T06:25:00.498Z,101157.03
2023-05-08T06:26:01.425Z,101158.79
2023-05-08T06:27:00.581Z,101154.31
2023-05-08T06:28:00.481Z,101149.78
2023-05-08T06:29:00.474Z,101150.33
2023-05-08T06:30:00.650Z,101154
2023-05-08T06:31:00.489Z,101159.89
2023-05-08T06:32:00.535Z,101149.8
2023-05-08T06:33:00.529Z,101151.77
2023-05-08T06:34:00.498Z,101157.5
2023-05-08T06:35:00.479Z,101158.91
2023-05-08T06:36:00.519Z,101150.23
2023-05-08T06:37:00.603Z,101153.45
2023-05-08T06:38:01.081Z,101154.98
2023-05-08T06:39:01.268Z,101156.97
2023-05-08T06:40:11.481Z,101152.41
2023-05-08T06:41:00.977Z,101157.66
2023-05-08T06:42:01.053Z,101156.92
2023-05-08T06:43:01.055Z,101152.7
2023-05-08T06:44:01.025Z,101156.9
2023-05-08T06:45:01.685Z,101157.62
2023-05-08T06:46:01.131Z,101151.32
2023-05-08T06:47:01.432Z,101150.36
2023-05-08T06:48:01.267Z,101156.17
2023-05-08T06:49:01.328Z,101156.88
2023-05-08T06:50:01.298Z,101154.06
2023-05-08T06:51:01.162Z,101157.97
2023-05-08T06:52:01.212Z,101154.35
2023-05-08T06:53:01.156Z,101153.7
2023-05-08T06:54:01.456Z,101156.38
2023-05-08T06:55:01.258Z,101148.75
2023-05-08T06:56:01.266Z,101151.67
2023-05-08T06:57:01.279Z,101156.31
2023-05-08T06:58:01.645Z,101154.59
2023-05-08T06:59:08.486Z,101157.73
2023-05-08T07:00:06.412Z,101156.66
2023-05-08T07:01:05.952Z,101154.86
2023-05-08T07:02:06.109Z,101154.5
2023-05-08T07:03:05.977Z,101150.91
2023-05-08T07:04:06.045Z,101154.85
2023-05-08T07:05:06.603Z,101149.23
2023-05-08T07:06:06.440Z,101153.65
2023-05-08T07:07:06.026Z,101159.3
2023-05-08T07:08:06.040Z,101152.23
2023-05-08T07:09:06.032Z,101156.2
2023-05-08T07:10:07.889Z,101154.84
2023-05-08T07:11:06.135Z,101149.52
2023-05-08T07:12:06.305Z,101152.93
2023-05-08T07:13:06.460Z,101153.15
2023-05-08T07:14:06.084Z,101155.19
2023-05-08T07:15:17.912Z,101154.61
2023-05-08T07:16:09.972Z,101155.27
2023-05-08T07:17:06.549Z,101155.42
2023-05-08T07:18:06.572Z,101155.62
2023-05-08T07:19:06.571Z,101157.77
2023-05-08T07:20:07.283Z,101148.23
2023-05-08T07:21:06.583Z,101148.68
2023-05-08T07:22:06.749Z,101150.45
2023-05-08T07:23:06.641Z,101149.23
2023-05-08T07:24:07.075Z,101150.27
2023-05-08T07:25:07.263Z,101153.28
2023-05-08T07:26:06.674Z,101149.11
2023-05-08T07:27:06.861Z,101152.61
2023-05-08T07:28:06.879Z,101145.38
2023-05-08T07:29:06.682Z,101149.16
2023-05-08T07:30:07.633Z,101148.55
2023-05-08T07:31:06.852Z,101150.66
2023-05-08T07:32:07.839Z,101146.89
2023-05-08T07:33:06.849Z,101153.77
2023-05-08T07:34:06.792Z,101153.47
2023-05-08T07:35:08.984Z,101157.41
2023-05-08T07:36:07.371Z,101149.35
2023-05-08T07:37:06.846Z,101149.67
2023-05-08T07:38:07.289Z,101148.06
2023-05-08T07:39:06.954Z,101150.38
2023-05-08T07:40:07.517Z,101150.78
2023-05-08T07:41:06.936Z,101153.27
2023-05-08T07:42:07.108Z,101149.78
2023-05-08T07:43:06.908Z,101147.45
2023-05-08T07:44:06.900Z,101146.2
2023-05-08T07:45:07.814Z,101142.02
2023-05-08T07:46:06.965Z,101143.27
2023-05-08T07:47:07.144Z,101145.06
2023-05-08T07:48:06.992Z,101145.37
2023-05-08T07:49:06.966Z,101148.78
2023-05-08T07:50:07.432Z,101143.78
2023-05-08T07:51:07.188Z,101143.8
2023-05-08T07:52:07.176Z,101144.49
2023-05-08T07:53:07.238Z,101143.23
2023-05-08T07:54:07.067Z,101145.54
2023-05-08T07:55:07.566Z,101139.92
2023-05-08T07:56:07.472Z,101141.92
2023-05-08T07:57:07.127Z,101140.16
2023-05-08T07:58:07.325Z,101142.18
2023-05-08T07:59:07.185Z,101142.66
2023-05-08T08:00:08.313Z,101138.52
2023-05-08T08:01:07.916Z,101140.19
2023-05-08T08:02:07.796Z,101133.91
2023-05-08T08:03:07.863Z,101136.31
2023-05-08T08:04:07.791Z,101133.4
2023-05-08T08:05:08.034Z,101142.24
2023-05-08T08:06:07.765Z,101135.84
2023-05-08T08:07:07.772Z,101139.23
2023-05-08T08:08:07.848Z,101134.27
2023-05-08T08:09:07.800Z,101135.19
2023-05-08T08:10:08.191Z,101135
2023-05-08T08:11:07.882Z,101139.4
2023-05-08T08:12:07.887Z,101139.7
2023-05-08T08:13:08.019Z,101135.41
2023-05-08T08:14:07.882Z,101141.03
2023-05-08T08:15:08.540Z,101136.91
2023-05-08T08:16:08.014Z,101137.77
2023-05-08T08:17:08.105Z,101139.75
2023-05-08T08:18:08.072Z,101138.76
2023-05-08T08:19:08.547Z,101142.78
2023-05-08T08:20:08.579Z,101136.05
2023-05-08T08:21:08.206Z,101138.5
2023-05-08T08:22:08.281Z,101139.62
2023-05-08T08:23:08.098Z,101136.09
2023-05-08T08:24:08.135Z,101137.77
2023-05-08T08:25:08.686Z,101131.24
2023-05-08T08:26:08.104Z,101132.45
2023-05-08T08:27:08.778Z,101130.12
2023-05-08T08:28:08.137Z,101129.33
2023-05-08T08:29:08.400Z,101128.65
2023-05-08T08:30:16.884Z,101128.36
2023-05-08T08:31:09.674Z,101125.02
2023-05-08T08:32:09.722Z,101124
2023-05-08T08:33:09.751Z,101117.19
2023-05-08T08:34:09.728Z,101123.95
2023-05-08T08:35:10.378Z,101122.55
2023-05-08T08:36:12.960Z,101121.69
2023-05-08T08:37:09.744Z,101122.36
2023-05-08T08:38:09.767Z,101114.06
2023-05-08T08:39:12.058Z,101126.14
2023-05-08T08:40:10.250Z,101123.07
2023-05-08T08:41:09.840Z,101127.31
2023-05-08T08:42:10.007Z,101124.05
2023-05-08T08:43:10.069Z,101119.58
2023-05-08T08:44:09.879Z,101118.14
2023-05-08T08:45:10.769Z,101114.15
2023-05-08T08:46:14.156Z,101114.48
2023-05-08T08:47:11.037Z,101117.64
2023-05-08T08:48:11.260Z,101118.48
2023-05-08T08:49:13.609Z,101113.8
2023-05-08T08:50:14.583Z,101116.12
2023-05-08T08:51:18.246Z,101114.2
2023-05-08T08:53:17.822Z,101107.98
2023-05-08T08:54:17.615Z,101106.56
2023-05-08T08:55:16.930Z,101110.42
2023-05-08T08:56:16.280Z,101109.75
2023-05-08T08:57:15.869Z,101109.17
2023-05-08T08:59:19.788Z,101107.51
2023-05-08T09:00:21.142Z,101106.3
2023-05-08T09:01:20.570Z,101108.32
2023-05-08T09:02:21.538Z,101104.3
2023-05-08T09:03:19.464Z,101103.08
2023-05-08T09:04:19.648Z,101110.81
2023-05-08T09:05:21.484Z,101105.16
2023-05-08T09:06:19.473Z,101102
2023-05-08T09:07:19.742Z,101108.38
2023-05-08T09:08:19.451Z,101106.73
2023-05-08T09:09:19.469Z,101105.59
2023-05-08T09:10:20.262Z,101105.52
2023-05-08T09:11:19.491Z,101104.67
2023-05-08T09:12:19.532Z,101097.7
2023-05-08T09:13:19.941Z,101102.85
2023-05-08T09:14:19.587Z,101101.09
2023-05-08T09:15:19.586Z,101102.68
2023-05-08T09:16:19.649Z,101096.69
2023-05-08T09:17:19.615Z,101088.42
2023-05-08T09:18:19.629Z,101092.98
2023-05-08T09:19:21.875Z,101099.7
2023-05-08T09:20:21.145Z,101095.35
2023-05-08T09:21:21.038Z,101092.39
2023-05-08T09:22:20.931Z,101091
2023-05-08T09:23:20.858Z,101089.45
2023-05-08T09:24:20.694Z,101089.19
2023-05-08T09:25:20.760Z,101090.47
2023-05-08T09:27:21.377Z,101081.88
2023-05-08T09:28:22.055Z,101080.41
2023-05-08T09:29:21.329Z,101081.86
2023-05-08T09:30:20.926Z,101082.61
2023-05-08T09:32:25.952Z,101090.56
2023-05-08T09:33:26.661Z,101083.45
2023-05-08T09:34:26.591Z,101082.69
2023-05-08T09:35:35.282Z,101080.93
2023-05-08T09:36:26.486Z,101081.33
2023-05-08T09:37:27.129Z,101080.12
2023-05-08T09:39:30.553Z,101079.02
2023-05-08T09:40:30.311Z,101083.09
2023-05-08T09:41:30.522Z,101077.42
2023-05-08T09:42:37.736Z,101079.89
2023-05-08T09:43:33.993Z,101080.75
2023-05-08T09:45:35.580Z,101068.67
2023-05-08T09:46:35.275Z,101073.16
2023-05-08T09:47:35.525Z,101073.85
2023-05-08T09:48:37.926Z,101076.39
2023-05-08T09:49:35.569Z,101078.62
2023-05-08T09:50:37.795Z,101076.59
2023-05-08T09:51:35.223Z,101067.8
2023-05-08T09:52:36.330Z,101072.3
2023-05-08T09:53:35.264Z,101074.94
2023-05-08T09:54:35.496Z,101071.2
2023-05-08T09:56:39.241Z,101065.52
2023-05-08T09:57:39.707Z,101071.25
2023-05-08T09:58:43.666Z,101076.25
2023-05-08T09:59:40.054Z,101069.75
2023-05-08T10:00:40.320Z,101070.93
2023-05-08T10:01:40.032Z,101073.14
2023-05-08T10:02:41.132Z,101065.2
2023-05-08T10:03:46.455Z,101073.42
2023-05-08T10:04:42.910Z,101071.88
2023-05-08T10:05:42.867Z,101070.04
2023-05-08T10:06:43.588Z,101068.55
2023-05-08T10:07:42.877Z,101064.66
2023-05-08T10:08:42.933Z,101067.59
2023-05-08T10:10:44.421Z,101074.82
2023-05-08T10:11:50.944Z,101077.62
2023-05-08T10:12:47.950Z,101074.14
2023-05-08T10:13:51.749Z,101071.73
2023-05-08T10:14:48.782Z,101065.16
2023-05-08T10:15:49.925Z,101069.83
2023-05-08T10:16:49.682Z,101063.7
2023-05-08T10:17:57.750Z,101061.54
2023-05-08T10:18:50.115Z,101061.19
2023-05-08T10:19:51.080Z,101061.78
2023-05-08T10:20:50.822Z,101062
2023-05-08T10:21:50.556Z,101060.5
2023-05-08T10:22:50.105Z,101062.34
2023-05-08T10:23:51.352Z,101064.64
2023-05-08T10:24:52.809Z,101065.32
2023-05-08T10:25:55.950Z,101056.41
2023-05-08T10:29:07.277Z,101058.86
2023-05-08T10:30:04.391Z,101058.72
2023-05-08T10:31:06.433Z,101067.03
2023-05-08T10:32:09.033Z,101060.58
2023-05-08T10:33:09.260Z,101055.92
2023-05-08T10:34:06.337Z,101053.52
2023-05-08T10:35:08.348Z,101055.91
2023-05-08T10:36:06.636Z,101057.19
2023-05-08T10:37:09.049Z,101061.49
2023-05-08T10:38:08.189Z,101055.02
2023-05-08T10:39:06.338Z,101056.11
2023-05-08T10:40:06.858Z,101050.05
2023-05-08T10:41:06.433Z,101047.16
2023-05-08T10:42:06.565Z,101043.91
2023-05-08T10:43:06.675Z,101043.56
2023-05-08T10:44:06.673Z,101049.66
2023-05-08T10:45:07.419Z,101047.42
2023-05-08T10:46:11.688Z,101048.95
2023-05-08T10:47:15.793Z,101039.84
2023-05-08T10:48:26.761Z,101037.28
2023-05-08T10:52:21.108Z,101045.91
2023-05-08T10:54:34.689Z,101041.77
2023-05-08T10:55:33.053Z,101042.77
2023-05-08T10:56:29.743Z,101041.89
2023-05-08T10:57:33.152Z,101039.69
2023-05-08T10:58:30.946Z,101042.89
2023-05-08T10:59:34.724Z,101044.62
2023-05-08T11:00:32.049Z,101041.66
2023-05-08T11:01:31.727Z,101045.06
2023-05-08T11:02:31.590Z,101039.02
2023-05-08T11:03:33.425Z,101039.88
2023-05-08T11:04:31.528Z,101040.55
2023-05-08T11:05:31.530Z,101039.96
2023-05-08T11:06:44.639Z,101038.02
2023-05-08T11:08:48.944Z,101041.25
2023-05-08T11:09:46.785Z,101040.34
2023-05-08T11:10:51.497Z,101037.84
2023-05-08T11:11:52.511Z,101039.91
2023-05-08T11:12:49.988Z,101039.23
2023-05-08T11:15:53.552Z,101036.89
2023-05-08T11:17:54.719Z,101040.55
2023-05-08T11:20:00.699Z,101027.64
2023-05-08T11:21:01.186Z,101031.16
2023-05-08T11:25:07.198Z,101023.61
2023-05-08T11:27:06.250Z,101035.56
2023-05-08T11:28:09.512Z,101024.02
2023-05-08T11:31:11.428Z,101034.27
2023-05-08T11:32:11.595Z,101036.75
2023-05-08T11:33:12.444Z,101037.69
2023-05-08T11:36:18.018Z,101027.3
2023-05-08T11:37:18.720Z,101024.73
2023-05-08T11:38:21.696Z,101024.33
2023-05-08T11:39:17.967Z,101018.55
2023-05-08T11:41:23.921Z,101015.75
2023-05-08T11:44:30.114Z,101024.07
2023-05-08T11:45:30.545Z,101027.75
2023-05-08T11:48:34.036Z,101013.95
2023-05-08T11:49:35.902Z,101015.02
2023-05-08T11:50:35.174Z,101013.78
2023-05-08T11:51:33.642Z,101013.97
2023-05-08T11:52:37.287Z,101012.5
2023-05-08T11:53:35.216Z,101012.06
2023-05-08T11:54:33.764Z,101019.73
2023-05-08T11:55:33.616Z,101014.62
2023-05-08T11:56:33.899Z,101008.88
2023-05-08T11:57:33.800Z,101004.37
2023-05-08T11:58:33.605Z,101006.19
2023-05-08T11:59:36.374Z,101010.33
2023-05-08T12:00:33.642Z,101012.16
2023-05-08T12:01:33.652Z,101013.8
2023-05-08T12:02:40.540Z,101007.52
2023-05-08T12:03:37.077Z,101014.31
2023-05-08T12:04:43.915Z,101012.36
2023-05-08T12:05:40.591Z,101010.25
2023-05-08T12:06:41.045Z,101001.5
2023-05-08T12:07:43.378Z,101003.39
2023-05-08T12:08:40.320Z,100996.12
2023-05-08T12:09:40.312Z,101005.33
2023-05-08T12:10:50.144Z,101004.84
2023-05-08T12:11:41.877Z,101013.47
2023-05-08T12:12:42.471Z,101014.05
2023-05-08T12:13:41.452Z,101012.23
2023-05-08T12:14:41.447Z,101006.25
2023-05-08T12:15:41.602Z,101007.75
2023-05-08T12:16:41.472Z,100998.29
2023-05-08T12:17:42.211Z,101004.14
2023-05-08T12:18:41.508Z,101006.07
2023-05-08T12:19:41.527Z,101009.83
2023-05-08T12:20:41.525Z,100999.05
2023-05-08T12:21:47.994Z,101006.19
2023-05-08T12:22:50.787Z,100991.29
2023-05-08T12:23:47.130Z,100999.56
2023-05-08T12:24:47.073Z,100998.52
2023-05-08T12:25:47.063Z,100997.56
2023-05-08T12:26:47.082Z,100995.56
2023-05-08T12:27:47.302Z,100992.66
2023-05-08T12:28:47.084Z,100988.28
2023-05-08T12:29:47.128Z,100990.82
2023-05-08T12:30:47.337Z,101003.22
2023-05-08T12:31:47.621Z,100997.83
2023-05-08T12:32:47.794Z,100995.12
2023-05-08T12:33:47.875Z,100992.8
2023-05-08T12:34:47.227Z,100990.27
2023-05-08T12:35:47.572Z,100991.84
2023-05-08T12:36:47.240Z,100991.72
2023-05-08T12:37:47.258Z,100990.41
2023-05-08T12:38:47.270Z,100993.49
2023-05-08T12:39:47.462Z,100992.38
2023-05-08T12:40:47.920Z,100989.59
2023-05-08T12:41:48.422Z,100990.66
2023-05-08T12:42:50.596Z,100983.08
2023-05-08T12:43:47.829Z,100980.13